createdAt,value
2018-01-27T00:00:05.965Z,1020.2
2018-01-27T00:00:32.090Z,1020.18
2018-01-27T00:00:58.190Z,1020.2
2018-01-27T00:01:24.304Z,1020.18
2018-01-27T00:01:50.407Z,1020.18
2018-01-27T00:02:16.509Z,1020.19
2018-01-27T00:02:42.604Z,1020.19
2018-01-27T00:03:08.704Z,1020.23
2018-01-27T00:03:34.804Z,1020.19
2018-01-27T00:04:00.910Z,1020.2
2018-01-27T00:04:27.014Z,1020.19
2018-01-27T00:04:53.141Z,1020.24
2018-01-27T00:05:19.247Z,1020.26
2018-01-27T00:05:45.352Z,1020.25
2018-01-27T00:06:11.441Z,1020.27
2018-01-27T00:06:37.556Z,1020.28
2018-01-27T00:07:03.700Z,1020.25
2018-01-27T00:07:29.865Z,1020.24
2018-01-27T00:07:55.985Z,1020.29
2018-01-27T00:08:22.089Z,1020.26
2018-01-27T00:08:48.186Z,1020.28
2018-01-27T00:09:14.283Z,1020.3
2018-01-27T00:09:40.388Z,1020.32
2018-01-27T00:10:06.491Z,1020.34
2018-01-27T00:10:32.588Z,1020.31
2018-01-27T00:10:58.695Z,1020.37
2018-01-27T00:11:24.790Z,1020.32
2018-01-27T00:11:50.894Z,1020.34
2018-01-27T00:12:17.017Z,1020.38
2018-01-27T00:12:43.117Z,1020.34
2018-01-27T00:13:09.244Z,1020.36
2018-01-27T00:13:35.351Z,1020.38
2018-01-27T00:14:01.449Z,1020.39
2018-01-27T00:14:27.554Z,1020.34
2018-01-27T00:14:53.670Z,1020.38
2018-01-27T00:15:19.810Z,1020.36
2018-01-27T00:15:45.869Z,1020.34
2018-01-27T00:16:11.971Z,1020.35
2018-01-27T00:16:38.072Z,1020.37
2018-01-27T00:17:04.172Z,1020.38
2018-01-27T00:17:30.291Z,1020.35
2018-01-27T00:17:56.392Z,1020.33
2018-01-27T00:18:22.496Z,1020.35
2018-01-27T00:18:48.609Z,1020.35
2018-01-27T00:19:14.716Z,1020.37
2018-01-27T00:19:40.824Z,1020.35
2018-01-27T00:20:06.925Z,1020.38
2018-01-27T00:20:33.017Z,1020.34
2018-01-27T00:20:59.164Z,1020.34
2018-01-27T00:21:25.298Z,1020.31
2018-01-27T00:21:51.425Z,1020.37
2018-01-27T00:22:17.544Z,1020.35
2018-01-27T00:22:43.646Z,1020.31
2018-01-27T00:23:09.797Z,1020.35
2018-01-27T00:23:35.951Z,1020.33
2018-01-27T00:24:02.049Z,1020.33
2018-01-27T00:24:28.146Z,1020.34
2018-01-27T00:24:54.256Z,1020.34
2018-01-27T00:25:20.357Z,1020.33
2018-01-27T00:25:46.455Z,1020.35
2018-01-27T00:26:12.559Z,1020.3
2018-01-27T00:26:38.650Z,1020.28
2018-01-27T00:27:04.792Z,1020.28
2018-01-27T00:27:30.903Z,1020.29
2018-01-27T00:27:57.003Z,1020.29
2018-01-27T00:28:23.106Z,1020.28
2018-01-27T00:28:49.216Z,1020.27
2018-01-27T00:29:15.319Z,1020.27
2018-01-27T00:29:41.420Z,1020.26
2018-01-27T00:30:07.542Z,1020.31
2018-01-27T00:30:33.644Z,1020.26
2018-01-27T00:30:59.749Z,1020.21
2018-01-27T00:31:25.846Z,1020.27
2018-01-27T00:31:51.975Z,1020.26
2018-01-27T00:32:18.448Z,1020.24
2018-01-27T00:32:44.509Z,1020.28
2018-01-27T00:33:10.617Z,1020.27
2018-01-27T00:33:36.721Z,1020.29
2018-01-27T00:34:02.823Z,1020.31
2018-01-27T00:34:28.919Z,1020.28
2018-01-27T00:34:55.027Z,1020.28
2018-01-27T00:35:21.124Z,1020.27
2018-01-27T00:35:47.226Z,1020.28
2018-01-27T00:36:13.336Z,1020.31
2018-01-27T00:36:39.441Z,1020.28
2018-01-27T00:37:05.570Z,1020.33
2018-01-27T00:37:31.692Z,1020.28
2018-01-27T00:37:57.803Z,1020.33
2018-01-27T00:38:23.945Z,1020.31
2018-01-27T00:38:50.052Z,1020.31
2018-01-27T00:39:16.151Z,1020.3
2018-01-27T00:39:42.252Z,1020.3
2018-01-27T00:40:08.353Z,1020.29
2018-01-27T00:40:34.451Z,1020.27
2018-01-27T00:41:00.557Z,1020.29
2018-01-27T00:41:26.670Z,1020.29
2018-01-27T00:41:52.774Z,1020.29
2018-01-27T00:42:18.874Z,1020.32
2018-01-27T00:42:44.978Z,1020.29
2018-01-27T00:43:11.076Z,1020.32
2018-01-27T00:43:37.188Z,1020.29
2018-01-27T00:44:03.285Z,1020.31
2018-01-27T00:44:29.394Z,1020.29
2018-01-27T00:44:55.497Z,1020.31
2018-01-27T00:45:21.655Z,1020.3
2018-01-27T00:45:47.760Z,1020.31
2018-01-27T00:46:13.858Z,1020.31
2018-01-27T00:46:39.968Z,1020.31
2018-01-27T00:47:06.070Z,1020.3
2018-01-27T00:47:32.193Z,1020.34
2018-01-27T00:47:58.287Z,1020.28
2018-01-27T00:48:24.387Z,1020.34
2018-01-27T00:48:50.488Z,1020.33
2018-01-27T00:49:16.589Z,1020.35
2018-01-27T00:49:42.728Z,1020.35
2018-01-27T00:50:08.880Z,1020.3
2018-01-27T00:50:34.983Z,1020.33
2018-01-27T00:51:01.089Z,1020.31
2018-01-27T00:51:27.201Z,1020.3
2018-01-27T00:51:53.314Z,1020.32
2018-01-27T00:52:19.418Z,1020.33
2018-01-27T00:52:45.517Z,1020.29
2018-01-27T00:53:11.621Z,1020.32
2018-01-27T00:53:37.726Z,1020.33
2018-01-27T00:54:03.851Z,1020.34
2018-01-27T00:54:29.974Z,1020.32
2018-01-27T00:54:56.108Z,1020.32
2018-01-27T00:55:22.216Z,1020.34
2018-01-27T00:55:48.309Z,1020.35
2018-01-27T00:56:14.413Z,1020.35
2018-01-27T00:56:40.512Z,1020.36
2018-01-27T00:57:06.614Z,1020.35
2018-01-27T00:57:32.716Z,1020.36
2018-01-27T00:57:58.812Z,1020.34
2018-01-27T00:58:24.943Z,1020.37
2018-01-27T00:58:51.067Z,1020.34
2018-01-27T00:59:17.163Z,1020.35
2018-01-27T00:59:43.299Z,1020.36
2018-01-27T01:00:09.396Z,1020.34
2018-01-27T01:00:35.499Z,1020.32
2018-01-27T01:01:01.598Z,1020.34
2018-01-27T01:01:27.700Z,1020.31
2018-01-27T01:01:53.798Z,1020.35
2018-01-27T01:02:19.903Z,1020.3
2018-01-27T01:02:46.021Z,1020.33
2018-01-27T01:03:12.193Z,1020.33
2018-01-27T01:03:38.292Z,1020.34
2018-01-27T01:04:04.389Z,1020.3
2018-01-27T01:04:30.491Z,1020.35
2018-01-27T01:04:56.590Z,1020.37
2018-01-27T01:05:22.691Z,1020.36
2018-01-27T01:05:48.806Z,1020.34
2018-01-27T01:06:14.902Z,1020.34
2018-01-27T01:06:41.059Z,1020.35
2018-01-27T01:07:07.160Z,1020.34
2018-01-27T01:07:33.261Z,1020.3
2018-01-27T01:07:59.365Z,1020.3
2018-01-27T01:08:25.466Z,1020.32
2018-01-27T01:08:51.622Z,1020.33
2018-01-27T01:09:17.748Z,1020.31
2018-01-27T01:09:43.844Z,1020.36
2018-01-27T01:10:09.946Z,1020.4
2018-01-27T01:10:36.070Z,1020.37
2018-01-27T01:11:02.175Z,1020.37
2018-01-27T01:11:28.293Z,1020.41
2018-01-27T01:11:54.403Z,1020.41
2018-01-27T01:12:20.514Z,1020.39
2018-01-27T01:12:46.606Z,1020.41
2018-01-27T01:13:12.744Z,1020.43
2018-01-27T01:13:38.844Z,1020.37
2018-01-27T01:14:04.947Z,1020.44
2018-01-27T01:14:31.047Z,1020.42
2018-01-27T01:14:57.154Z,1020.41
2018-01-27T01:15:23.258Z,1020.45
2018-01-27T01:15:49.367Z,1020.42
2018-01-27T01:16:15.469Z,1020.42
2018-01-27T01:16:41.563Z,1020.46
2018-01-27T01:17:07.669Z,1020.43
2018-01-27T01:17:33.764Z,1020.46
2018-01-27T01:17:59.868Z,1020.44
2018-01-27T01:18:25.984Z,1020.43
2018-01-27T01:18:52.080Z,1020.42
2018-01-27T01:19:18.187Z,1020.42
2018-01-27T01:19:44.284Z,1020.45
2018-01-27T01:20:10.389Z,1020.44
2018-01-27T01:20:36.491Z,1020.45
2018-01-27T01:21:02.587Z,1020.45
2018-01-27T01:21:28.688Z,1020.49
2018-01-27T01:21:54.790Z,1020.52
2018-01-27T01:22:20.913Z,1020.52
2018-01-27T01:22:47.141Z,1020.56
2018-01-27T01:23:13.170Z,1020.52
2018-01-27T01:23:39.265Z,1020.53
2018-01-27T01:24:05.372Z,1020.52
2018-01-27T01:24:31.482Z,1020.55
2018-01-27T01:24:57.582Z,1020.56
2018-01-27T01:25:23.708Z,1020.6
2018-01-27T01:25:49.812Z,1020.59
2018-01-27T01:26:15.908Z,1020.6
2018-01-27T01:26:42.007Z,1020.54
2018-01-27T01:27:08.114Z,1020.56
2018-01-27T01:27:34.211Z,1020.6
2018-01-27T01:28:00.490Z,1020.57
2018-01-27T01:28:26.595Z,1020.59
2018-01-27T01:28:52.700Z,1020.61
2018-01-27T01:29:18.803Z,1020.6
2018-01-27T01:29:44.911Z,1020.54
2018-01-27T01:30:11.013Z,1020.57
2018-01-27T01:30:37.117Z,1020.58
2018-01-27T01:31:03.212Z,1020.59
2018-01-27T01:31:29.326Z,1020.6
2018-01-27T01:31:55.425Z,1020.58
2018-01-27T01:32:21.530Z,1020.62
2018-01-27T01:32:47.635Z,1020.61
2018-01-27T01:33:13.736Z,1020.61
2018-01-27T01:33:39.836Z,1020.63
2018-01-27T01:34:05.936Z,1020.62
2018-01-27T01:34:32.034Z,1020.62
2018-01-27T01:34:58.146Z,1020.62
2018-01-27T01:35:24.244Z,1020.66
2018-01-27T01:35:50.367Z,1020.67
2018-01-27T01:36:16.499Z,1020.71
2018-01-27T01:36:42.597Z,1020.71
2018-01-27T01:37:08.698Z,1020.66
2018-01-27T01:37:34.802Z,1020.67
2018-01-27T01:38:00.898Z,1020.66
2018-01-27T01:38:27.002Z,1020.68
2018-01-27T01:38:53.106Z,1020.71
2018-01-27T01:39:19.207Z,1020.72
2018-01-27T01:39:45.306Z,1020.69
2018-01-27T01:40:11.427Z,1020.68
2018-01-27T01:40:37.528Z,1020.7
2018-01-27T01:41:03.625Z,1020.69
2018-01-27T01:41:29.744Z,1020.69
2018-01-27T01:41:55.841Z,1020.68
2018-01-27T01:42:21.948Z,1020.68
2018-01-27T01:42:48.044Z,1020.69
2018-01-27T01:43:14.146Z,1020.71
2018-01-27T01:43:40.252Z,1020.71
2018-01-27T01:44:06.365Z,1020.68
2018-01-27T01:44:32.485Z,1020.72
2018-01-27T01:44:58.587Z,1020.71
2018-01-27T01:45:24.713Z,1020.7
2018-01-27T01:45:50.812Z,1020.75
2018-01-27T01:46:16.930Z,1020.73
2018-01-27T01:46:43.029Z,1020.75
2018-01-27T01:47:09.135Z,1020.73
2018-01-27T01:47:35.248Z,1020.76
2018-01-27T01:48:01.371Z,1020.75
2018-01-27T01:48:27.475Z,1020.79
2018-01-27T01:48:53.570Z,1020.77
2018-01-27T01:49:19.676Z,1020.75
2018-01-27T01:49:45.777Z,1020.74
2018-01-27T01:50:11.893Z,1020.75
2018-01-27T01:50:37.999Z,1020.75
2018-01-27T01:51:04.111Z,1020.75
2018-01-27T01:51:30.214Z,1020.68
2018-01-27T01:51:56.313Z,1020.72
2018-01-27T01:52:22.428Z,1020.72
2018-01-27T01:52:48.530Z,1020.7
2018-01-27T01:53:14.651Z,1020.74
2018-01-27T01:53:40.748Z,1020.74
2018-01-27T01:54:06.845Z,1020.69
2018-01-27T01:54:32.947Z,1020.69
2018-01-27T01:54:59.060Z,1020.68
2018-01-27T01:55:25.168Z,1020.71
2018-01-27T01:55:51.270Z,1020.67
2018-01-27T01:56:17.368Z,1020.66
2018-01-27T01:56:43.471Z,1020.67
2018-01-27T01:57:09.572Z,1020.69
2018-01-27T01:57:35.677Z,1020.73
2018-01-27T01:58:01.778Z,1020.7
2018-01-27T01:58:27.873Z,1020.7
2018-01-27T01:58:53.978Z,1020.69
2018-01-27T01:59:20.076Z,1020.7
2018-01-27T01:59:46.176Z,1020.7
2018-01-27T02:00:12.277Z,1020.67
2018-01-27T02:00:38.378Z,1020.73
2018-01-27T02:01:04.483Z,1020.71
2018-01-27T02:01:30.584Z,1020.72
2018-01-27T02:01:56.682Z,1020.75
2018-01-27T02:02:22.786Z,1020.74
2018-01-27T02:02:48.884Z,1020.76
2018-01-27T02:03:14.982Z,1020.74
2018-01-27T02:03:41.085Z,1020.76
2018-01-27T02:04:07.187Z,1020.73
2018-01-27T02:04:33.301Z,1020.71
2018-01-27T02:04:59.403Z,1020.73
2018-01-27T02:05:25.524Z,1020.73
2018-01-27T02:05:51.621Z,1020.71
2018-01-27T02:06:17.724Z,1020.74
2018-01-27T02:06:43.824Z,1020.73
2018-01-27T02:07:09.925Z,1020.72
2018-01-27T02:07:36.029Z,1020.71
2018-01-27T02:08:02.127Z,1020.72
2018-01-27T02:08:28.227Z,1020.74
2018-01-27T02:08:54.334Z,1020.73
2018-01-27T02:09:20.438Z,1020.75
2018-01-27T02:09:46.533Z,1020.74
2018-01-27T02:10:12.633Z,1020.73
2018-01-27T02:10:38.749Z,1020.76
2018-01-27T02:11:04.850Z,1020.75
2018-01-27T02:11:30.953Z,1020.74
2018-01-27T02:11:57.047Z,1020.76
2018-01-27T02:12:23.151Z,1020.76
2018-01-27T02:12:49.248Z,1020.76
2018-01-27T02:13:15.352Z,1020.75
2018-01-27T02:13:41.444Z,1020.77
2018-01-27T02:14:07.547Z,1020.79
2018-01-27T02:14:33.650Z,1020.78
2018-01-27T02:14:59.757Z,1020.79
2018-01-27T02:15:25.870Z,1020.76
2018-01-27T02:15:51.977Z,1020.76
2018-01-27T02:16:18.079Z,1020.78
2018-01-27T02:16:44.187Z,1020.81
2018-01-27T02:17:10.289Z,1020.8
2018-01-27T02:17:36.392Z,1020.78
2018-01-27T02:18:02.487Z,1020.78
2018-01-27T02:18:28.590Z,1020.78
2018-01-27T02:18:54.690Z,1020.82
2018-01-27T02:19:20.795Z,1020.77
2018-01-27T02:19:46.896Z,1020.79
2018-01-27T02:20:12.997Z,1020.81
2018-01-27T02:20:39.089Z,1020.8
2018-01-27T02:21:05.193Z,1020.81
2018-01-27T02:21:31.293Z,1020.82
2018-01-27T02:21:57.401Z,1020.86
2018-01-27T02:22:23.523Z,1020.84
2018-01-27T02:22:49.619Z,1020.84
2018-01-27T02:23:15.745Z,1020.82
2018-01-27T02:23:41.860Z,1020.86
2018-01-27T02:24:07.962Z,1020.83
2018-01-27T02:24:34.065Z,1020.86
2018-01-27T02:25:00.163Z,1020.84
2018-01-27T02:25:26.259Z,1020.84
2018-01-27T02:25:52.357Z,1020.86
2018-01-27T02:26:18.455Z,1020.87
2018-01-27T02:26:44.558Z,1020.87
2018-01-27T02:27:10.665Z,1020.89
2018-01-27T02:27:36.766Z,1020.86
2018-01-27T02:28:02.871Z,1020.85
2018-01-27T02:28:28.967Z,1020.84
2018-01-27T02:28:55.074Z,1020.88
2018-01-27T02:29:21.174Z,1020.89
2018-01-27T02:29:47.271Z,1020.83
2018-01-27T02:30:13.380Z,1020.83
2018-01-27T02:30:39.476Z,1020.83
2018-01-27T02:31:05.572Z,1020.83
2018-01-27T02:31:31.674Z,1020.84
2018-01-27T02:31:57.788Z,1020.83
2018-01-27T02:32:23.905Z,1020.84
2018-01-27T02:32:50.007Z,1020.86
2018-01-27T02:33:16.109Z,1020.88
2018-01-27T02:33:42.208Z,1020.87
2018-01-27T02:34:08.314Z,1020.87
2018-01-27T02:34:34.415Z,1020.9
2018-01-27T02:35:00.510Z,1020.87
2018-01-27T02:35:26.625Z,1020.87
2018-01-27T02:35:52.730Z,1020.92
2018-01-27T02:36:18.826Z,1020.91
2018-01-27T02:36:44.936Z,1020.84
2018-01-27T02:37:11.027Z,1020.87
2018-01-27T02:37:37.133Z,1020.88
2018-01-27T02:38:03.233Z,1020.87
2018-01-27T02:38:29.347Z,1020.91
2018-01-27T02:38:55.451Z,1020.88
2018-01-27T02:39:21.547Z,1020.85
2018-01-27T02:39:47.653Z,1020.89
2018-01-27T02:40:13.764Z,1020.85
2018-01-27T02:40:39.864Z,1020.86
2018-01-27T02:41:05.969Z,1020.82
2018-01-27T02:41:32.075Z,1020.89
2018-01-27T02:41:58.174Z,1020.92
2018-01-27T02:42:24.275Z,1020.89
2018-01-27T02:42:50.380Z,1020.92
2018-01-27T02:43:16.484Z,1020.92
2018-01-27T02:43:42.582Z,1020.91
2018-01-27T02:44:08.690Z,1020.89
2018-01-27T02:44:34.786Z,1020.93
2018-01-27T02:45:00.919Z,1020.91
2018-01-27T02:45:27.037Z,1020.91
2018-01-27T02:45:53.131Z,1020.91
2018-01-27T02:46:19.249Z,1020.94
2018-01-27T02:46:45.357Z,1020.93
2018-01-27T02:47:11.458Z,1020.98
2018-01-27T02:47:37.560Z,1020.92
2018-01-27T02:48:03.662Z,1020.95
2018-01-27T02:48:29.757Z,1020.97
2018-01-27T02:48:55.856Z,1020.93
2018-01-27T02:49:21.959Z,1020.99
2018-01-27T02:49:48.062Z,1020.99
2018-01-27T02:50:14.161Z,1020.95
2018-01-27T02:50:40.257Z,1020.99
2018-01-27T02:51:06.356Z,1020.96
2018-01-27T02:51:32.458Z,1020.93
2018-01-27T02:51:58.554Z,1020.94
2018-01-27T02:52:24.663Z,1020.94
2018-01-27T02:52:50.765Z,1020.93
2018-01-27T02:53:16.889Z,1020.94
2018-01-27T02:53:42.986Z,1020.93
2018-01-27T02:54:09.084Z,1020.96
2018-01-27T02:54:35.199Z,1020.96
2018-01-27T02:55:01.301Z,1020.94
2018-01-27T02:55:27.404Z,1020.97
2018-01-27T02:55:53.501Z,1020.95
2018-01-27T02:56:19.597Z,1020.96
2018-01-27T02:56:45.706Z,1020.95
2018-01-27T02:57:11.825Z,1020.98
2018-01-27T02:57:37.923Z,1020.97
2018-01-27T02:58:04.028Z,1020.94
2018-01-27T02:58:30.126Z,1020.92
2018-01-27T02:58:56.227Z,1020.9
2018-01-27T02:59:22.330Z,1020.91
2018-01-27T02:59:48.431Z,1020.89
2018-01-27T03:00:14.535Z,1020.89
2018-01-27T03:00:40.638Z,1020.94
2018-01-27T03:01:06.731Z,1020.89
2018-01-27T03:01:32.830Z,1020.9
2018-01-27T03:01:58.937Z,1020.93
2018-01-27T03:02:25.033Z,1020.9
2018-01-27T03:02:51.136Z,1020.93
2018-01-27T03:03:17.242Z,1020.9
2018-01-27T03:03:43.357Z,1020.92
2018-01-27T03:04:09.463Z,1020.91
2018-01-27T03:04:35.561Z,1020.95
2018-01-27T03:05:01.663Z,1020.95
2018-01-27T03:05:27.786Z,1020.96
2018-01-27T03:05:53.888Z,1020.97
2018-01-27T03:06:19.993Z,1020.97
2018-01-27T03:06:46.093Z,1021
2018-01-27T03:07:12.197Z,1020.95
2018-01-27T03:07:38.317Z,1020.96
2018-01-27T03:08:04.415Z,1020.95
2018-01-27T03:08:30.522Z,1020.99
2018-01-27T03:08:56.636Z,1020.98
2018-01-27T03:09:22.740Z,1020.96
2018-01-27T03:09:48.833Z,1020.95
2018-01-27T03:10:14.937Z,1020.96
2018-01-27T03:10:41.035Z,1020.95
2018-01-27T03:11:07.137Z,1020.87
2018-01-27T03:11:33.246Z,1020.93
2018-01-27T03:11:59.343Z,1020.91
2018-01-27T03:12:25.450Z,1020.89
2018-01-27T03:12:51.568Z,1020.93
2018-01-27T03:13:17.668Z,1020.92
2018-01-27T03:13:43.772Z,1020.95
2018-01-27T03:14:09.890Z,1020.9
2018-01-27T03:14:35.990Z,1020.93
2018-01-27T03:15:02.088Z,1020.97
2018-01-27T03:15:28.182Z,1020.95
2018-01-27T03:15:54.284Z,1020.98
2018-01-27T03:16:20.379Z,1020.97
2018-01-27T03:16:46.482Z,1020.96
2018-01-27T03:17:12.605Z,1020.98
2018-01-27T03:17:38.703Z,1021
2018-01-27T03:18:04.809Z,1021.03
2018-01-27T03:18:30.910Z,1021.04
2018-01-27T03:18:57.008Z,1021.07
2018-01-27T03:19:23.134Z,1021.08
2018-01-27T03:19:49.237Z,1021.09
2018-01-27T03:20:15.336Z,1021.07
2018-01-27T03:20:41.436Z,1021.09
2018-01-27T03:21:07.541Z,1021.07
2018-01-27T03:21:33.639Z,1021.1
2018-01-27T03:21:59.742Z,1021.11
2018-01-27T03:22:25.846Z,1021.1
2018-01-27T03:22:51.947Z,1021.11
2018-01-27T03:23:18.049Z,1021.13
2018-01-27T03:23:44.146Z,1021.12
2018-01-27T03:24:10.250Z,1021.1
2018-01-27T03:24:36.346Z,1021.13
2018-01-27T03:25:02.456Z,1021.1
2018-01-27T03:25:28.566Z,1021.14
2018-01-27T03:25:54.663Z,1021.14
2018-01-27T03:26:20.768Z,1021.15
2018-01-27T03:26:46.879Z,1021.15
2018-01-27T03:27:12.968Z,1021.13
2018-01-27T03:27:39.066Z,1021.14
2018-01-27T03:28:05.173Z,1021.14
2018-01-27T03:28:31.290Z,1021.13
2018-01-27T03:28:57.387Z,1021.14
2018-01-27T03:29:23.502Z,1021.16
2018-01-27T03:29:49.600Z,1021.16
2018-01-27T03:30:15.722Z,1021.14
2018-01-27T03:30:41.822Z,1021.18
2018-01-27T03:31:07.926Z,1021.13
2018-01-27T03:31:34.032Z,1021.21
2018-01-27T03:32:00.128Z,1021.17
2018-01-27T03:32:26.228Z,1021.18
2018-01-27T03:32:52.350Z,1021.18
2018-01-27T03:33:18.452Z,1021.16
2018-01-27T03:33:44.553Z,1021.18
2018-01-27T03:34:10.651Z,1021.17
2018-01-27T03:34:36.757Z,1021.15
2018-01-27T03:35:02.849Z,1021.17
2018-01-27T03:35:28.953Z,1021.14
2018-01-27T03:35:55.050Z,1021.19
2018-01-27T03:36:21.159Z,1021.18
2018-01-27T03:36:47.265Z,1021.17
2018-01-27T03:37:13.356Z,1021.21
2018-01-27T03:37:39.457Z,1021.18
2018-01-27T03:38:05.559Z,1021.23
2018-01-27T03:38:31.665Z,1021.2
2018-01-27T03:38:57.774Z,1021.21
2018-01-27T03:39:23.868Z,1021.2
2018-01-27T03:39:49.969Z,1021.2
2018-01-27T03:40:16.075Z,1021.2
2018-01-27T03:40:42.171Z,1021.22
2018-01-27T03:41:08.275Z,1021.23
2018-01-27T03:41:34.398Z,1021.23
2018-01-27T03:42:00.497Z,1021.23
2018-01-27T03:42:26.601Z,1021.26
2018-01-27T03:42:52.698Z,1021.24
2018-01-27T03:43:18.798Z,1021.28
2018-01-27T03:43:44.918Z,1021.24
2018-01-27T03:44:11.017Z,1021.24
2018-01-27T03:44:37.139Z,1021.25
2018-01-27T03:45:03.240Z,1021.3
2018-01-27T03:45:29.344Z,1021.29
2018-01-27T03:45:55.442Z,1021.28
2018-01-27T03:46:21.545Z,1021.28
2018-01-27T03:46:47.646Z,1021.27
2018-01-27T03:47:13.749Z,1021.29
2018-01-27T03:47:39.853Z,1021.29
2018-01-27T03:48:05.950Z,1021.27
2018-01-27T03:48:32.048Z,1021.28
2018-01-27T03:48:58.151Z,1021.27
2018-01-27T03:49:24.254Z,1021.29
2018-01-27T03:49:50.350Z,1021.31
2018-01-27T03:50:16.452Z,1021.28
2018-01-27T03:50:42.553Z,1021.29
2018-01-27T03:51:08.651Z,1021.31
2018-01-27T03:51:34.759Z,1021.31
2018-01-27T03:52:00.863Z,1021.28
2018-01-27T03:52:26.959Z,1021.29
2018-01-27T03:52:53.056Z,1021.26
2018-01-27T03:53:19.157Z,1021.31
2018-01-27T03:53:45.255Z,1021.32
2018-01-27T03:54:11.381Z,1021.3
2018-01-27T03:54:37.483Z,1021.34
2018-01-27T03:55:03.599Z,1021.32
2018-01-27T03:55:29.703Z,1021.31
2018-01-27T03:55:55.798Z,1021.35
2018-01-27T03:56:21.897Z,1021.36
2018-01-27T03:56:48.001Z,1021.36
2018-01-27T03:57:14.097Z,1021.36
2018-01-27T03:57:40.199Z,1021.33
2018-01-27T03:58:06.304Z,1021.36
2018-01-27T03:58:32.402Z,1021.35
2018-01-27T03:58:58.507Z,1021.37
2018-01-27T03:59:24.611Z,1021.36
2018-01-27T03:59:50.704Z,1021.37
2018-01-27T04:00:16.821Z,1021.44
2018-01-27T04:00:42.932Z,1021.43
2018-01-27T04:01:09.027Z,1021.46
2018-01-27T04:01:35.126Z,1021.45
2018-01-27T04:02:01.224Z,1021.48
2018-01-27T04:02:27.346Z,1021.45
2018-01-27T04:02:53.445Z,1021.5
2018-01-27T04:03:19.549Z,1021.48
2018-01-27T04:03:45.645Z,1021.49
2018-01-27T04:04:11.748Z,1021.5
2018-01-27T04:04:37.851Z,1021.5
2018-01-27T04:05:03.952Z,1021.49
2018-01-27T04:05:30.053Z,1021.49
2018-01-27T04:05:56.152Z,1021.49
2018-01-27T04:06:22.257Z,1021.54
2018-01-27T04:06:48.353Z,1021.56
2018-01-27T04:07:14.460Z,1021.57
2018-01-27T04:07:40.558Z,1021.59
2018-01-27T04:08:06.665Z,1021.59
2018-01-27T04:08:32.768Z,1021.61
2018-01-27T04:08:58.864Z,1021.59
2018-01-27T04:09:24.968Z,1021.64
2018-01-27T04:09:51.066Z,1021.61
2018-01-27T04:10:17.164Z,1021.59
2018-01-27T04:10:43.268Z,1021.61
2018-01-27T04:11:09.365Z,1021.65
2018-01-27T04:11:35.470Z,1021.67
2018-01-27T04:12:01.573Z,1021.67
2018-01-27T04:12:27.675Z,1021.66
2018-01-27T04:12:53.774Z,1021.67
2018-01-27T04:13:19.880Z,1021.63
2018-01-27T04:13:45.974Z,1021.63
2018-01-27T04:14:12.070Z,1021.63
2018-01-27T04:14:38.180Z,1021.61
2018-01-27T04:15:04.270Z,1021.61
2018-01-27T04:15:30.375Z,1021.62
2018-01-27T04:15:56.493Z,1021.65
2018-01-27T04:16:22.612Z,1021.64
2018-01-27T04:16:48.710Z,1021.68
2018-01-27T04:17:14.815Z,1021.65
2018-01-27T04:17:40.910Z,1021.65
2018-01-27T04:18:07.006Z,1021.68
2018-01-27T04:18:33.112Z,1021.67
2018-01-27T04:18:59.208Z,1021.63
2018-01-27T04:19:25.305Z,1021.69
2018-01-27T04:19:51.412Z,1021.67
2018-01-27T04:20:17.508Z,1021.71
2018-01-27T04:20:43.609Z,1021.69
2018-01-27T04:21:09.712Z,1021.7
2018-01-27T04:21:35.814Z,1021.72
2018-01-27T04:22:01.920Z,1021.72
2018-01-27T04:22:28.019Z,1021.74
2018-01-27T04:22:54.118Z,1021.71
2018-01-27T04:23:20.224Z,1021.73
2018-01-27T04:23:46.319Z,1021.72
2018-01-27T04:24:12.418Z,1021.73
2018-01-27T04:24:38.526Z,1021.74
2018-01-27T04:25:04.628Z,1021.73
2018-01-27T04:25:30.732Z,1021.71
2018-01-27T04:25:56.834Z,1021.75
2018-01-27T04:26:22.935Z,1021.71
2018-01-27T04:26:49.029Z,1021.73
2018-01-27T04:27:15.135Z,1021.72
2018-01-27T04:27:41.254Z,1021.72
2018-01-27T04:28:07.350Z,1021.77
2018-01-27T04:28:33.456Z,1021.75
2018-01-27T04:28:59.554Z,1021.76
2018-01-27T04:29:25.657Z,1021.8
2018-01-27T04:29:51.758Z,1021.82
2018-01-27T04:30:17.852Z,1021.82
2018-01-27T04:30:43.995Z,1021.81
2018-01-27T04:31:10.058Z,1021.8
2018-01-27T04:31:36.157Z,1021.84
2018-01-27T04:32:02.261Z,1021.86
2018-01-27T04:32:28.360Z,1021.82
2018-01-27T04:32:54.465Z,1021.85
2018-01-27T04:33:20.563Z,1021.89
2018-01-27T04:33:46.669Z,1021.86
2018-01-27T04:34:12.767Z,1021.9
2018-01-27T04:34:38.866Z,1021.87
2018-01-27T04:35:04.972Z,1021.96
2018-01-27T04:35:31.089Z,1021.95
2018-01-27T04:35:57.186Z,1021.97
2018-01-27T04:36:23.291Z,1021.96
2018-01-27T04:36:49.388Z,1021.98
2018-01-27T04:37:15.494Z,1022
2018-01-27T04:37:41.599Z,1022.01
2018-01-27T04:38:07.692Z,1021.99
2018-01-27T04:38:33.793Z,1022
2018-01-27T04:38:59.899Z,1021.99
2018-01-27T04:39:26.000Z,1021.99
2018-01-27T04:39:52.102Z,1021.99
2018-01-27T04:40:18.200Z,1022.01
2018-01-27T04:40:44.296Z,1022.02
2018-01-27T04:41:10.400Z,1022.01
2018-01-27T04:41:36.504Z,1021.99
2018-01-27T04:42:02.601Z,1022
2018-01-27T04:42:28.708Z,1022.02
2018-01-27T04:42:54.805Z,1022
2018-01-27T04:43:20.904Z,1022.02
2018-01-27T04:43:47.025Z,1022.03
2018-01-27T04:44:13.133Z,1022.04
2018-01-27T04:44:39.231Z,1022.02
2018-01-27T04:45:05.331Z,1022.08
2018-01-27T04:45:31.427Z,1022.02
2018-01-27T04:45:57.525Z,1022.05
2018-01-27T04:46:23.631Z,1022.06
2018-01-27T04:46:49.731Z,1022.04
2018-01-27T04:47:15.848Z,1022.03
2018-01-27T04:47:41.954Z,1022.09
2018-01-27T04:48:08.053Z,1022.02
2018-01-27T04:48:34.153Z,1022.08
2018-01-27T04:49:00.273Z,1022.1
2018-01-27T04:49:26.369Z,1022.09
2018-01-27T04:49:52.474Z,1022.08
2018-01-27T04:50:18.577Z,1022.12
2018-01-27T04:50:44.689Z,1022.11
2018-01-27T04:51:10.792Z,1022.1
2018-01-27T04:51:36.907Z,1022.15
2018-01-27T04:52:03.005Z,1022.15
2018-01-27T04:52:29.108Z,1022.16
2018-01-27T04:52:55.213Z,1022.14
2018-01-27T04:53:21.311Z,1022.15
2018-01-27T04:53:47.414Z,1022.21
2018-01-27T04:54:13.513Z,1022.18
2018-01-27T04:54:39.614Z,1022.2
2018-01-27T04:55:05.712Z,1022.24
2018-01-27T04:55:31.830Z,1022.25
2018-01-27T04:55:57.929Z,1022.18
2018-01-27T04:56:24.050Z,1022.19
2018-01-27T04:56:50.154Z,1022.2
2018-01-27T04:57:16.248Z,1022.2
2018-01-27T04:57:42.356Z,1022.21
2018-01-27T04:58:08.478Z,1022.24
2018-01-27T04:58:34.575Z,1022.21
2018-01-27T04:59:00.670Z,1022.22
2018-01-27T04:59:26.769Z,1022.27
2018-01-27T04:59:52.877Z,1022.27
2018-01-27T05:00:18.972Z,1022.26
2018-01-27T05:00:45.077Z,1022.28
2018-01-27T05:01:11.177Z,1022.27
2018-01-27T05:01:37.289Z,1022.28
2018-01-27T05:02:03.390Z,1022.25
2018-01-27T05:02:29.483Z,1022.23
2018-01-27T05:02:55.589Z,1022.26
2018-01-27T05:03:21.691Z,1022.25
2018-01-27T05:03:47.789Z,1022.29
2018-01-27T05:04:13.918Z,1022.26
2018-01-27T05:04:40.025Z,1022.26
2018-01-27T05:05:06.126Z,1022.25
2018-01-27T05:05:32.223Z,1022.24
2018-01-27T05:05:58.326Z,1022.27
2018-01-27T05:06:24.425Z,1022.26
2018-01-27T05:06:50.530Z,1022.28
2018-01-27T05:07:16.633Z,1022.27
2018-01-27T05:07:42.738Z,1022.28
2018-01-27T05:08:08.840Z,1022.29
2018-01-27T05:08:34.939Z,1022.27
2018-01-27T05:09:01.036Z,1022.34
2018-01-27T05:09:27.142Z,1022.32
2018-01-27T05:09:53.238Z,1022.33
2018-01-27T05:10:19.336Z,1022.33
2018-01-27T05:10:45.440Z,1022.32
2018-01-27T05:11:11.541Z,1022.32
2018-01-27T05:11:37.643Z,1022.37
2018-01-27T05:12:03.745Z,1022.39
2018-01-27T05:12:29.844Z,1022.36
2018-01-27T05:12:55.950Z,1022.42
2018-01-27T05:13:22.045Z,1022.4
2018-01-27T05:13:48.145Z,1022.42
2018-01-27T05:14:14.252Z,1022.44
2018-01-27T05:14:40.346Z,1022.47
2018-01-27T05:15:06.446Z,1022.43
2018-01-27T05:15:32.546Z,1022.43
2018-01-27T05:15:58.649Z,1022.41
2018-01-27T05:16:24.752Z,1022.41
2018-01-27T05:16:50.881Z,1022.43